Time;durP1;ratioP1;P1;durP2;ratioP2;P2;SDS_P1;SDS_P2;PMS_P1;PMS_P2;Temp;Humidity;BMP_temperature;BMP_pressure;BME280_temperature;BME280_humidity;BME280_pressure;Samples;Min_cycle;Max_cycle;Signal;HPM_P1;HPM_P2
2023/10/14 00:02:05;;;;;;;5.18;2.22;;;22.80;56.20;;;;;;4873545;29;20327;-75
2023/10/14 00:04:34;;;;;;;8.25;2.50;;;22.70;56.30;;;;;;4889373;29;20345;-75
2023/10/14 00:07:07;;;;;;;4.32;2.20;;;22.60;56.80;;;;;;4889757;29;20108;-74
2023/10/14 00:09:35;;;;;;;4.40;2.38;;;22.50;57.70;;;;;;4872616;29;20037;-74
2023/10/14 00:12:04;;;;;;;5.07;2.10;;;22.30;57.60;;;;;;4888319;29;20097;-74
2023/10/14 00:14:32;;;;;;;6.22;2.45;;;22.20;57.80;;;;;;4887418;29;20021;-74
2023/10/14 00:17:12;;;;;;;5.03;2.50;;;22.10;58.20;;;;;;4889287;29;20160;-74
2023/10/14 00:19:41;;;;;;;4.68;2.08;;;22.10;58.70;;;;;;4888795;29;20040;-74
2023/10/14 00:22:08;;;;;;;6.90;2.50;;;22.00;59.10;;;;;;4885125;29;20106;-74
2023/10/14 00:24:37;;;;;;;6.43;2.28;;;22.00;59.10;;;;;;4868271;29;20053;-75
2023/10/14 00:27:07;;;;;;;4.53;2.33;;;22.00;59.40;;;;;;4869975;29;20022;-74
2023/10/14 00:29:36;;;;;;;6.30;2.30;;;22.10;60.20;;;;;;4853990;29;20287;-76
2023/10/14 07:13:59;;;;;;;5.57;2.40;;;19.20;95.60;;;;;;5237864;23;20060;-76
2023/10/14 07:16:25;;;;;;;7.72;2.65;;;19.40;95.00;;;;;;4875565;29;20213;-74
2023/10/14 07:18:51;;;;;;;6.10;2.63;;;19.50;94.20;;;;;;4892860;29;20035;-76
2023/10/14 07:21:19;;;;;;;7.22;2.72;;;19.70;93.60;;;;;;4917601;29;20182;-76
2023/10/14 07:23:45;;;;;;;7.13;2.20;;;19.90;93.10;;;;;;4892795;29;20024;-77
2023/10/14 07:26:13;;;;;;;5.90;2.60;;;20.00;92.60;;;;;;4909512;29;20346;-75
2023/10/14 07:28:42;;;;;;;6.40;2.07;;;20.30;92.40;;;;;;4892992;29;20025;-76
2023/10/14 07:31:12;;;;;;;7.25;1.88;;;20.40;92.20;;;;;;4909294;29;20028;-76
2023/10/14 07:33:39;;;;;;;7.80;2.63;;;20.60;91.60;;;;;;4907627;29;20023;-76
2023/10/14 07:36:06;;;;;;;5.68;1.90;;;20.60;91.40;;;;;;4888959;29;20025;-78
2023/10/14 07:38:35;;;;;;;7.57;2.30;;;20.60;91.10;;;;;;4901155;29;20265;-76
2023/10/14 07:41:01;;;;;;;5.15;2.03;;;20.50;91.30;;;;;;4875663;29;20025;-76
2023/10/14 07:43:27;;;;;;;5.03;1.58;;;20.70;91.00;;;;;;4895060;29;20044;-77
2023/10/14 07:45:53;;;;;;;4.18;1.73;;;20.70;90.40;;;;;;4892832;29;20093;-75
2023/10/14 07:48:19;;;;;;;8.25;2.17;;;20.60;90.60;;;;;;4890606;29;20311;-75
2023/10/14 07:50:48;;;;;;;4.95;1.90;;;20.50;90.50;;;;;;4869980;29;20020;-76
2023/10/14 07:53:15;;;;;;;8.95;1.92;;;20.50;90.30;;;;;;4890097;29;20024;-76
2023/10/14 07:55:43;;;;;;;8.02;1.80;;;20.50;90.60;;;;;;4887007;29;20056;-77
2023/10/14 07:58:12;;;;;;;4.40;1.60;;;20.60;90.20;;;;;;4908092;29;20020;-77
2023/10/14 08:00:39;;;;;;;6.15;2.10;;;20.40;90.30;;;;;;4908745;29;20254;-76
2023/10/14 08:03:16;;;;;;;4.77;1.80;;;20.30;90.60;;;;;;4876202;29;20025;-77
2023/10/14 08:05:45;;;;;;;4.38;1.60;;;20.40;90.70;;;;;;4909050;29;20048;-76
2023/10/14 08:08:11;;;;;;;6.85;2.25;;;20.30;90.50;;;;;;4908233;29;20085;-76
2023/10/14 08:10:48;;;;;;;7.35;2.00;;;20.30;90.70;;;;;;4876524;29;20112;-78
2023/10/14 08:13:24;;;;;;;2.92;1.45;;;20.30;90.60;;;;;;4899799;29;20132;-74
2023/10/14 08:15:57;;;;;;;4.32;1.80;;;20.20;90.80;;;;;;4852237;29;20351;-76
2023/10/14 08:18:24;;;;;;;4.82;1.63;;;20.20;90.90;;;;;;4857648;29;20077;-76
2023/10/14 08:20:53;;;;;;;6.28;1.75;;;20.20;90.80;;;;;;4840944;29;20090;-75
2023/10/14 08:23:23;;;;;;;6.75;2.03;;;20.20;90.80;;;;;;4877545;29;20041;-74
2023/10/14 08:25:56;;;;;;;6.20;1.98;;;20.30;90.70;;;;;;4880992;29;20058;-79
2023/10/14 08:28:42;;;;;;;3.83;1.70;;;20.40;90.50;;;;;;4893428;29;20200;-75
2023/10/14 08:31:08;;;;;;;6.35;1.50;;;20.60;90.30;;;;;;4872406;29;20314;-75
2023/10/14 08:33:36;;;;;;;4.85;2.28;;;20.70;90.20;;;;;;4866094;29;20293;-74
2023/10/14 08:36:23;;;;;;;6.07;1.92;;;20.90;89.80;;;;;;4854227;29;20234;-77
2023/10/14 08:39:28;;;;;;;3.17;1.10;;;21.00;89.10;;;;;;4869723;29;20054;-78
2023/10/14 08:42:28;;;;;;;4.20;0.98;;;21.10;88.00;;;;;;4857574;29;20033;-76
2023/10/14 08:45:53;;;;;;;5.20;1.33;;;21.10;87.90;;;;;;4854488;29;20029;-78
2023/10/14 08:49:16;;;;;;;3.78;1.05;;;21.20;88.00;;;;;;4866242;29;20104;-76
2023/10/14 08:52:18;;;;;;;3.92;1.20;;;21.30;87.40;;;;;;4882383;29;20529;-76
2023/10/14 08:59:07;;;;;;;3.40;0.90;;;21.40;87.10;;;;;;4851605;29;20021;-78
2023/10/14 09:01:40;;;;;;;3.30;0.90;;;21.60;86.10;;;;;;4836175;29;20035;-79
2023/10/14 09:04:08;;;;;;;3.85;0.90;;;21.80;85.90;;;;;;4835656;29;20038;-78
2023/10/14 09:07:00;;;;;;;;;;;22.10;84.40;;;;;;4836174;29;20037;-77
2023/10/14 09:09:32;;;;;;;2.03;0.95;;;22.30;83.70;;;;;;4846405;29;19907;-77
2023/10/14 09:12:10;;;;;;;4.47;1.00;;;22.40;83.10;;;;;;4870466;29;20244;-77
2023/10/14 09:14:42;;;;;;;2.05;0.40;;;22.20;83.70;;;;;;4853888;29;20053;-76
2023/10/14 09:17:15;;;;;;;0.88;0.30;;;22.10;84.70;;;;;;4870107;29;20214;-77
2023/10/14 09:19:57;;;;;;;0.85;0.15;;;21.10;88.00;;;;;;4849041;29;20044;-76
2023/10/14 09:22:33;;;;;;;1.40;0.35;;;20.00;91.00;;;;;;4870574;29;20034;-77
2023/10/14 09:25:09;;;;;;;2.40;0.45;;;19.30;92.40;;;;;;4853587;29;20033;-77
2023/10/14 09:27:34;;;;;;;0.90;0.40;;;18.70;93.90;;;;;;4870342;29;20326;-74
2023/10/14 09:30:10;;;;;;;1.23;0.40;;;18.00;97.50;;;;;;4868574;29;20036;-76
2023/10/14 09:32:40;;;;;;;1.45;0.50;;;17.30;99.90;;;;;;4870165;29;20048;-77
2023/10/14 09:35:06;;;;;;;1.40;0.60;;;16.80;99.90;;;;;;4853209;29;20097;-77
2023/10/14 09:37:39;;;;;;;2.25;0.90;;;16.50;99.90;;;;;;4853829;29;20045;-78
2023/10/14 09:40:13;;;;;;;1.40;0.70;;;16.30;99.90;;;;;;4853611;29;20200;-77
2023/10/14 09:42:48;;;;;;;1.65;0.70;;;16.10;99.90;;;;;;4854021;29;20038;-77
2023/10/14 09:45:19;;;;;;;1.60;0.80;;;16.10;99.90;;;;;;4852847;29;20037;-78
2023/10/14 09:47:52;;;;;;;2.03;0.75;;;16.00;99.90;;;;;;4838342;29;20030;-80
2023/10/14 09:50:33;;;;;;;2.85;1.00;;;16.00;99.90;;;;;;4853103;29;20108;-81
2023/10/14 09:53:03;;;;;;;2.05;0.90;;;16.10;99.90;;;;;;4853620;29;20041;-78
2023/10/14 09:55:30;;;;;;;2.53;0.90;;;16.20;99.90;;;;;;4839728;29;20034;-78
2023/10/14 09:57:59;;;;;;;2.35;1.00;;;16.30;99.90;;;;;;4842289;29;20029;-78
2023/10/14 10:00:39;;;;;;;1.95;0.70;;;16.50;99.90;;;;;;4843627;29;20048;-79
2023/10/14 10:03:06;;;;;;;1.42;0.75;;;16.70;99.90;;;;;;4869924;29;20134;-75
2023/10/14 10:05:58;;;;;;;2.40;0.60;;;17.00;99.90;;;;;;4869934;29;20034;-80
2023/10/14 10:09:26;;;;;;;1.00;0.40;;;17.40;99.90;;;;;;4857964;29;20295;-76
2023/10/14 10:11:55;;;;;;;2.05;0.40;;;17.80;99.90;;;;;;4875002;29;20033;-79
2023/10/14 10:14:25;;;;;;;0.70;0.20;;;18.10;99.90;;;;;;4872222;29;20266;-81
2023/10/14 10:16:53;;;;;;;1.92;0.57;;;18.30;99.90;;;;;;4876483;29;20025;-76
2023/10/14 10:19:23;;;;;;;0.75;0.40;;;18.40;99.90;;;;;;4876189;29;20040;-75
2023/10/14 10:22:18;;;;;;;1.02;0.43;;;18.60;99.90;;;;;;4892821;29;20025;-77
2023/10/14 10:24:54;;;;;;;1.55;0.38;;;18.90;99.90;;;;;;4876264;29;20056;-80
2023/10/14 10:27:23;;;;;;;0.75;0.20;;;18.70;99.90;;;;;;4876285;29;20029;-79
2023/10/14 10:29:51;;;;;;;2.08;0.32;;;18.60;98.80;;;;;;4875957;29;20036;-77
2023/10/14 10:32:21;;;;;;;0.57;0.25;;;18.60;97.90;;;;;;4875418;29;20067;-78
2023/10/14 10:35:05;;;;;;;0.80;0.28;;;18.50;97.70;;;;;;4874599;29;20017;-80
2023/10/14 10:37:57;;;;;;;1.00;0.30;;;18.50;98.10;;;;;;4860450;29;20056;-77
2023/10/14 10:40:28;;;;;;;1.10;0.32;;;18.60;96.80;;;;;;4859300;29;20048;-78
2023/10/14 10:42:58;;;;;;;0.98;0.30;;;18.70;96.80;;;;;;4891351;29;20041;-78
2023/10/14 10:45:33;;;;;;;1.58;0.60;;;18.70;96.70;;;;;;4859047;29;20033;-76
2023/10/14 10:48:03;;;;;;;0.73;0.20;;;18.80;97.80;;;;;;4892180;29;20318;-77
2023/10/14 10:50:40;;;;;;;1.63;0.43;;;18.90;97.00;;;;;;4892053;29;20037;-78
2023/10/14 10:53:10;;;;;;;1.38;0.43;;;18.80;98.40;;;;;;4859970;29;20036;-78
2023/10/14 10:55:48;;;;;;;1.58;0.50;;;18.80;98.20;;;;;;4860439;29;20338;-77
2023/10/14 10:58:16;;;;;;;2.50;0.57;;;18.80;98.40;;;;;;4874656;29;20032;-77
2023/10/14 11:00:45;;;;;;;;;;;18.70;97.70;;;;;;4856089;29;20105;-75
2023/10/14 11:03:23;;;;;;;1.38;0.55;;;18.50;97.80;;;;;;4872704;29;20190;-79
2023/10/14 11:05:49;;;;;;;;;;;18.40;97.80;;;;;;4872096;29;20311;-75
2023/10/14 11:08:18;;;;;;;2.92;0.85;;;18.30;98.80;;;;;;4871266;29;19908;-75
2023/10/14 11:10:45;;;;;;;2.53;0.90;;;18.20;99.20;;;;;;4889919;29;20025;-75
2023/10/14 11:13:16;;;;;;;1.50;0.50;;;18.00;99.90;;;;;;4890938;29;20049;-79
2023/10/14 11:15:48;;;;;;;1.25;0.50;;;17.90;99.90;;;;;;4891921;29;20085;-79
2023/10/14 11:18:15;;;;;;;3.35;0.85;;;17.70;99.90;;;;;;4890881;29;20321;-76
2023/10/14 11:20:50;;;;;;;3.10;0.73;;;17.40;99.90;;;;;;4874718;29;20033;-80
2023/10/14 11:23:44;;;;;;;2.08;0.60;;;17.10;99.90;;;;;;4874021;29;20032;-78
2023/10/14 11:26:12;;;;;;;2.50;0.63;;;16.80;99.90;;;;;;4874245;29;20037;-78
2023/10/14 11:28:45;;;;;;;2.90;0.73;;;16.70;99.90;;;;;;4889464;29;20100;-78
2023/10/14 11:31:13;;;;;;;1.52;0.73;;;16.70;99.90;;;;;;4873820;29;20040;-78
2023/10/14 11:34:52;;;;;;;;;;;;;;;;;;;;;
2023/10/14 11:37:26;;;;;;;2.85;0.70;;;16.60;99.90;;;;;;4846095;29;20041;-79
2023/10/14 11:40:11;;;;;;;1.48;0.50;;;16.80;99.90;;;;;;4888959;29;20049;-77
2023/10/14 11:42:37;;;;;;;2.08;0.70;;;17.00;99.90;;;;;;4873942;29;20040;-78
2023/10/14 11:45:46;;;;;;;1.17;0.30;;;17.20;99.90;;;;;;4873758;29;20032;-78
2023/10/14 11:49:06;;;;;;;1.20;0.35;;;17.50;99.90;;;;;;4824653;29;20037;-80
2023/10/14 11:51:37;;;;;;;1.40;0.30;;;17.70;99.90;;;;;;4858960;29;20100;-77
2023/10/14 11:54:17;;;;;;;1.75;0.40;;;17.40;99.90;;;;;;4858426;29;20200;-79
2023/10/14 12:00:49;;;;;;;2.03;0.50;;;17.20;99.90;;;;;;4890542;29;20227;-80
2023/10/14 12:03:14;;;;;;;1.02;0.40;;;17.00;99.90;;;;;;4869763;29;20028;-77
2023/10/14 12:05:40;;;;;;;1.27;0.30;;;16.80;99.90;;;;;;4889814;29;20202;-78
2023/10/14 12:08:09;;;;;;;3.45;0.70;;;16.60;99.90;;;;;;4872692;29;20323;-77
2023/10/14 12:11:03;;;;;;;0.70;0.30;;;16.40;99.90;;;;;;4888753;29;20082;-76
2023/10/14 12:13:51;;;;;;;3.50;0.70;;;16.30;99.90;;;;;;4863727;29;20061;-78
2023/10/14 12:16:27;;;;;;;1.80;0.60;;;15.80;99.90;;;;;;4839029;29;20033;-79
2023/10/14 12:19:06;;;;;;;1.20;0.43;;;15.80;99.90;;;;;;4854602;29;20029;-79
2023/10/14 12:21:38;;;;;;;1.00;0.50;;;15.80;99.90;;;;;;4852547;29;20096;-77
2023/10/14 12:24:04;;;;;;;3.83;0.70;;;15.60;99.90;;;;;;4862157;29;20049;-79
2023/10/14 12:26:33;;;;;;;3.78;0.82;;;15.60;99.90;;;;;;4851966;29;20077;-77
2023/10/14 12:29:07;;;;;;;;;;;15.60;99.90;;;;;;4853249;29;20338;-78
2023/10/14 12:31:38;;;;;;;2.03;0.77;;;15.70;99.90;;;;;;4872402;29;19943;-77
2023/10/14 12:34:04;;;;;;;2.75;0.95;;;15.70;99.90;;;;;;4866818;29;20022;-74
2023/10/14 12:36:31;;;;;;;1.63;0.60;;;15.80;99.90;;;;;;4852178;29;20040;-74
2023/10/14 12:38:56;;;;;;;1.38;0.43;;;15.80;99.90;;;;;;4848970;29;20307;-77
2023/10/14 12:41:22;;;;;;;1.98;0.55;;;15.80;99.90;;;;;;4853595;29;20033;-76
2023/10/14 12:54:49;;;;;;;1.55;0.40;;;16.00;99.90;;;;;;4830532;29;20114;-75
2023/10/14 12:57:16;;;;;;;2.28;0.50;;;15.80;99.90;;;;;;4813653;29;20259;-77
2023/10/14 12:59:43;;;;;;;;;;;15.90;99.90;;;;;;4807207;29;20384;-75
2023/10/14 13:02:20;;;;;;;1.00;0.30;;;15.70;99.90;;;;;;4830754;29;19917;-74
2023/10/14 13:04:46;;;;;;;1.27;0.43;;;15.70;99.90;;;;;;4835303;29;20281;-76
2023/10/14 13:07:19;;;;;;;1.77;0.40;;;15.60;99.90;;;;;;4837450;29;20045;-77
2023/10/14 13:09:45;;;;;;;1.70;0.40;;;15.50;99.90;;;;;;4850179;29;20037;-76
2023/10/14 13:12:21;;;;;;;1.30;0.40;;;15.50;99.90;;;;;;4822235;29;20052;-76
2023/10/14 13:14:57;;;;;;;1.58;0.47;;;15.50;99.90;;;;;;4849427;29;20049;-78
2023/10/14 13:17:27;;;;;;;1.20;0.32;;;15.40;99.90;;;;;;4831174;29;20066;-76
2023/10/14 13:20:15;;;;;;;2.30;0.40;;;15.40;99.90;;;;;;4816558;29;20313;-78
2023/10/14 13:22:55;;;;;;;1.40;0.60;;;15.60;99.90;;;;;;4816471;29;20351;-76
2023/10/14 13:25:31;;;;;;;1.98;0.40;;;15.60;99.90;;;;;;4867483;29;20077;-76
2023/10/14 13:28:01;;;;;;;2.00;0.50;;;15.60;99.90;;;;;;4869669;29;20307;-76
2023/10/14 13:30:26;;;;;;;1.42;0.60;;;15.60;99.90;;;;;;4877143;29;20041;-78
2023/10/14 13:32:54;;;;;;;1.98;0.70;;;15.60;99.90;;;;;;4869404;29;20311;-76
2023/10/14 13:35:23;;;;;;;1.52;0.50;;;15.50;99.90;;;;;;4873920;29;20049;-75
2023/10/14 13:37:49;;;;;;;2.28;0.70;;;15.50;99.90;;;;;;4868303;29;20046;-77
2023/10/14 13:40:22;;;;;;;0.90;0.40;;;15.60;99.90;;;;;;4867875;29;20021;-76
2023/10/14 13:42:52;;;;;;;1.90;0.63;;;15.60;99.90;;;;;;4870631;29;20112;-77
2023/10/14 13:45:27;;;;;;;1.33;0.50;;;15.60;99.90;;;;;;4870578;29;20021;-77
2023/10/14 13:47:54;;;;;;;1.10;0.30;;;15.60;99.90;;;;;;4849673;29;20322;-77
2023/10/14 13:50:21;;;;;;;2.22;0.40;;;15.70;99.90;;;;;;4862804;29;20096;-78
2023/10/14 13:52:55;;;;;;;1.95;0.50;;;15.60;99.90;;;;;;4871879;29;20017;-76
2023/10/14 13:55:24;;;;;;;1.45;0.60;;;15.40;99.90;;;;;;4879434;29;20219;-76
2023/10/14 13:57:54;;;;;;;3.78;0.52;;;15.50;99.90;;;;;;4890877;29;20057;-77
2023/10/14 14:00:44;;;;;;;3.05;0.60;;;15.50;99.90;;;;;;4874970;29;20085;-77
2023/10/14 14:03:28;;;;;;;1.60;0.57;;;15.60;99.90;;;;;;4891389;29;20292;-75
2023/10/14 14:05:58;;;;;;;1.38;0.40;;;15.50;99.90;;;;;;4875423;29;20033;-77
2023/10/14 14:08:26;;;;;;;2.38;0.70;;;15.40;99.90;;;;;;4874690;29;20041;-75
2023/10/14 14:10:58;;;;;;;3.03;0.50;;;15.30;99.90;;;;;;4875318;29;20028;-77
2023/10/14 14:13:42;;;;;;;1.95;0.50;;;15.20;99.90;;;;;;4867201;29;20094;-77
2023/10/14 14:16:08;;;;;;;2.30;0.70;;;15.10;99.90;;;;;;4872244;29;20045;-78
2023/10/14 14:18:34;;;;;;;1.67;0.50;;;15.10;99.90;;;;;;4855762;29;20113;-77
2023/10/14 14:21:02;;;;;;;1.55;0.55;;;15.00;99.90;;;;;;4846448;29;20034;-78
2023/10/14 14:23:30;;;;;;;2.60;0.70;;;15.20;99.90;;;;;;4854444;29;20021;-79
2023/10/14 14:25:56;;;;;;;3.23;0.70;;;15.20;99.90;;;;;;4852135;29;20223;-77
2023/10/14 14:31:54;;;;;;;2.75;0.90;;;15.30;99.90;;;;;;4859186;29;20093;-81
2023/10/14 14:38:24;;;;;;;3.60;0.68;;;15.20;97.30;;;;;;4839112;29;20419;-79
2023/10/14 14:41:18;;;;;;;2.95;0.80;;;15.20;96.60;;;;;;4831006;29;20061;-79
2023/10/14 14:44:21;;;;;;;2.15;1.05;;;15.00;95.60;;;;;;4837463;29;20080;-79
2023/10/14 14:46:47;;;;;;;2.13;0.70;;;15.10;96.10;;;;;;4853970;29;20315;-78
2023/10/14 14:49:16;;;;;;;2.72;0.73;;;15.10;96.50;;;;;;4821817;29;20041;-77
2023/10/14 14:51:42;;;;;;;;;;;15.20;96.70;;;;;;4852166;29;20221;-78
2023/10/14 14:54:08;;;;;;;3.53;1.02;;;15.00;96.90;;;;;;4852373;29;19908;-75
2023/10/14 14:56:34;;;;;;;2.58;0.82;;;15.10;96.80;;;;;;4835344;29;20058;-75
2023/10/14 14:59:03;;;;;;;2.72;1.13;;;15.00;97.10;;;;;;4821827;29;20028;-76
2023/10/14 15:01:40;;;;;;;2.58;1.10;;;15.00;96.90;;;;;;4836306;29;20054;-77
2023/10/14 15:04:09;;;;;;;3.83;1.10;;;15.00;97.00;;;;;;4852264;29;20041;-76
2023/10/14 15:06:35;;;;;;;4.15;1.15;;;15.10;96.60;;;;;;4851809;29;20041;-76
2023/10/14 15:09:04;;;;;;;5.60;1.55;;;15.90;96.30;;;;;;4821781;29;20049;-79
2023/10/14 15:11:36;;;;;;;5.22;1.17;;;16.60;93.60;;;;;;4835732;29;20456;-79
2023/10/14 15:14:07;;;;;;;4.82;1.30;;;17.00;92.90;;;;;;4862619;29;20319;-79
2023/10/14 15:16:38;;;;;;;7.30;1.60;;;17.10;91.90;;;;;;4890736;29;20033;-76
2023/10/14 15:19:07;;;;;;;5.65;1.27;;;17.00;90.50;;;;;;4909818;29;20029;-77
2023/10/14 15:21:33;;;;;;;5.85;1.60;;;16.90;90.60;;;;;;4877208;29;20024;-77
2023/10/14 15:24:00;;;;;;;5.90;1.25;;;16.40;91.50;;;;;;4909654;29;20214;-75
2023/10/14 15:26:26;;;;;;;6.55;1.45;;;17.10;90.40;;;;;;4909348;29;20041;-76
2023/10/14 15:28:52;;;;;;;6.50;1.38;;;17.30;89.50;;;;;;4877678;29;20402;-78
2023/10/14 15:31:17;;;;;;;5.70;1.30;;;17.90;86.50;;;;;;4906581;29;20024;-76
2023/10/14 15:33:43;;;;;;;6.72;1.30;;;17.30;87.20;;;;;;4889945;29;20066;-76
2023/10/14 15:36:15;;;;;;;4.82;1.35;;;16.80;88.60;;;;;;4892042;29;20060;-77
2023/10/14 15:38:51;;;;;;;5.38;1.50;;;16.60;89.10;;;;;;4908491;29;20084;-76
2023/10/14 15:41:16;;;;;;;5.28;1.73;;;16.10;90.40;;;;;;4908177;29;20036;-76
2023/10/14 15:43:42;;;;;;;7.55;1.98;;;16.60;89.20;;;;;;4891458;29;20028;-78
2023/10/14 15:46:08;;;;;;;4.53;1.52;;;16.70;88.20;;;;;;4892216;29;20205;-76
2023/10/14 15:48:34;;;;;;;8.43;2.05;;;16.50;88.70;;;;;;4904001;29;20029;-77
2023/10/14 15:51:00;;;;;;;8.68;1.92;;;16.20;88.80;;;;;;4908494;29;20043;-75
2023/10/14 15:53:28;;;;;;;5.47;1.70;;;16.00;89.10;;;;;;4908338;29;20079;-79
2023/10/14 15:56:03;;;;;;;6.07;1.30;;;16.00;87.90;;;;;;4891902;29;20044;-76
2023/10/14 15:58:31;;;;;;;6.95;1.60;;;16.20;88.10;;;;;;4907292;29;20040;-77
2023/10/14 16:00:58;;;;;;;4.90;1.20;;;16.20;87.00;;;;;;4891862;29;20031;-76
2023/10/14 16:03:24;;;;;;;4.55;1.48;;;16.10;87.10;;;;;;4891196;29;20037;-76
2023/10/14 16:05:56;;;;;;;7.90;1.88;;;15.70;88.50;;;;;;4884760;29;20321;-76
2023/10/14 16:08:24;;;;;;;9.00;2.17;;;15.20;90.00;;;;;;4903960;29;20041;-78
2023/10/14 16:10:50;;;;;;;6.15;1.50;;;14.90;90.40;;;;;;4898076;29;20052;-76
2023/10/14 16:13:16;;;;;;;6.22;1.60;;;14.60;90.80;;;;;;4888162;29;20053;-77
2023/10/14 16:15:43;;;;;;;6.50;1.98;;;14.30;91.00;;;;;;4891958;29;20043;-75
2023/10/14 16:18:08;;;;;;;4.90;1.38;;;14.10;91.60;;;;;;4879982;29;20095;-75
2023/10/14 16:20:36;;;;;;;8.43;1.63;;;14.00;91.80;;;;;;4890477;29;20021;-75
2023/10/14 16:23:03;;;;;;;6.05;1.85;;;13.80;92.10;;;;;;4902069;29;20025;-74
2023/10/14 16:25:31;;;;;;;8.35;1.90;;;13.70;92.20;;;;;;4873747;29;20032;-76
2023/10/14 16:27:58;;;;;;;7.30;1.83;;;13.50;92.40;;;;;;4890463;29;20084;-73
2023/10/14 16:30:27;;;;;;;5.30;1.40;;;13.40;92.60;;;;;;4895836;29;20343;-76
2023/10/14 16:32:57;;;;;;;6.22;1.58;;;13.20;92.50;;;;;;4901933;29;20056;-75
2023/10/14 16:35:27;;;;;;;5.35;1.67;;;13.20;92.80;;;;;;4918125;29;20045;-76
2023/10/14 16:37:56;;;;;;;7.57;1.70;;;13.10;92.90;;;;;;4908568;29;20057;-75
2023/10/14 16:40:29;;;;;;;4.68;1.45;;;13.00;93.20;;;;;;4907521;29;20054;-74
2023/10/14 16:42:59;;;;;;;5.10;1.58;;;13.00;92.90;;;;;;4907932;29;20262;-76
2023/10/14 16:45:26;;;;;;;8.43;1.83;;;12.90;93.20;;;;;;4890219;29;20036;-77
2023/10/14 16:47:53;;;;;;;6.85;1.90;;;12.80;93.30;;;;;;4887757;29;20032;-77
2023/10/14 16:50:26;;;;;;;6.60;1.77;;;12.70;93.70;;;;;;4907869;29;20217;-75
2023/10/14 16:52:53;;;;;;;7.22;1.60;;;12.60;94.00;;;;;;4891074;29;20036;-76
2023/10/14 16:55:20;;;;;;;9.68;2.05;;;12.60;94.40;;;;;;4907727;29;20032;-76
2023/10/14 16:57:48;;;;;;;7.15;1.70;;;12.60;94.00;;;;;;4889892;29;20039;-75
2023/10/14 17:00:22;;;;;;;6.47;1.85;;;12.50;94.30;;;;;;4857511;29;20211;-78
2023/10/14 17:02:56;;;;;;;6.75;1.55;;;12.50;94.30;;;;;;4889027;29;20061;-77
2023/10/14 17:05:22;;;;;;;6.63;2.15;;;12.50;94.30;;;;;;4887795;29;20037;-76
2023/10/14 17:07:49;;;;;;;6.80;1.80;;;12.50;94.20;;;;;;4891181;29;20081;-75
2023/10/14 17:10:17;;;;;;;7.22;1.77;;;12.50;94.00;;;;;;4889517;29;20107;-75
2023/10/14 17:12:44;;;;;;;6.47;1.90;;;12.50;94.10;;;;;;4905577;29;20033;-76
2023/10/14 17:15:18;;;;;;;8.32;2.30;;;12.50;94.20;;;;;;4890435;29;20433;-76
2023/10/14 17:17:47;;;;;;;6.30;1.80;;;12.50;94.10;;;;;;4887298;29;20247;-76
2023/10/14 17:20:14;;;;;;;8.93;2.25;;;12.40;93.90;;;;;;4887684;29;20124;-76
2023/10/14 17:22:42;;;;;;;6.05;1.80;;;12.40;93.70;;;;;;4888078;29;20334;-75
2023/10/14 17:25:09;;;;;;;5.03;1.70;;;12.40;93.70;;;;;;4872469;29;20379;-75
2023/10/14 17:27:37;;;;;;;10.23;2.00;;;12.40;93.70;;;;;;4872131;29;20345;-77
2023/10/14 17:30:04;;;;;;;11.02;2.00;;;12.40;93.50;;;;;;4891703;29;20041;-77
2023/10/14 17:32:30;;;;;;;5.22;1.60;;;12.30;93.60;;;;;;4872393;29;20025;-78
2023/10/14 17:35:00;;;;;;;7.13;1.80;;;12.30;93.60;;;;;;4888478;29;20035;-78
2023/10/14 17:37:27;;;;;;;8.55;1.83;;;12.20;93.60;;;;;;4907211;29;20040;-77
2023/10/14 17:39:53;;;;;;;11.07;2.10;;;12.10;93.30;;;;;;4906515;29;20163;-77
2023/10/14 17:42:19;;;;;;;6.05;1.55;;;12.10;93.20;;;;;;4907053;29;20114;-78
2023/10/14 17:44:47;;;;;;;7.18;1.60;;;12.10;93.10;;;;;;4890726;29;20310;-77
2023/10/14 17:47:14;;;;;;;5.35;1.58;;;12.20;93.10;;;;;;4890662;29;20080;-78
2023/10/14 17:49:39;;;;;;;4.78;1.67;;;12.20;93.20;;;;;;4905396;29;20036;-77
2023/10/14 17:52:06;;;;;;;6.70;1.70;;;12.10;93.10;;;;;;4907555;29;20092;-77
2023/10/14 17:54:32;;;;;;;8.13;1.83;;;12.10;93.20;;;;;;4890524;29;20025;-78
2023/10/14 17:57:00;;;;;;;6.90;1.95;;;12.10;93.30;;;;;;4907424;29;20314;-77
2023/10/14 17:59:29;;;;;;;4.07;1.50;;;12.10;93.40;;;;;;4890696;29;20080;-78
2023/10/14 18:01:55;;;;;;;7.53;2.00;;;12.10;93.60;;;;;;4907846;29;20025;-77
2023/10/14 18:04:22;;;;;;;5.85;2.08;;;12.00;93.60;;;;;;4900187;29;20037;-77
2023/10/14 18:06:49;;;;;;;6.95;2.05;;;12.00;93.70;;;;;;4888551;29;20044;-76
2023/10/14 18:09:17;;;;;;;7.57;1.90;;;12.00;93.70;;;;;;4872094;29;20315;-77
2023/10/14 18:11:50;;;;;;;;;;;12.00;93.50;;;;;;4877011;29;20065;-77
2023/10/14 18:14:16;;;;;;;6.80;1.52;;;11.90;93.40;;;;;;4887830;29;19951;-79
2023/10/14 18:16:46;;;;;;;7.22;1.60;;;12.00;93.40;;;;;;4883634;29;20091;-77
2023/10/14 18:19:12;;;;;;;5.60;1.85;;;11.90;93.30;;;;;;4890401;29;20141;-78
2023/10/14 18:21:44;;;;;;;7.32;1.80;;;11.90;93.30;;;;;;4885878;29;20025;-77
2023/10/14 18:24:12;;;;;;;4.55;1.65;;;11.80;93.40;;;;;;4890996;29;20115;-74
2023/10/14 18:26:38;;;;;;;6.00;1.85;;;11.80;93.40;;;;;;4874961;29;20028;-76
2023/10/14 18:29:04;;;;;;;6.35;1.80;;;11.80;93.40;;;;;;4890581;29;20211;-77
2023/10/14 18:31:33;;;;;;;5.07;1.55;;;11.80;93.60;;;;;;4891790;29;20020;-76
2023/10/14 18:33:58;;;;;;;;;;;11.80;93.70;;;;;;4911085;29;20040;-76
2023/10/14 18:36:24;;;;;;;7.32;2.22;;;11.80;93.80;;;;;;4906078;29;19978;-76
2023/10/14 18:38:52;;;;;;;6.95;2.30;;;11.70;93.90;;;;;;4910688;29;20023;-76
2023/10/14 18:41:18;;;;;;;7.32;2.20;;;11.70;94.00;;;;;;4910654;29;20046;-77
2023/10/14 18:43:46;;;;;;;7.43;2.38;;;11.70;94.10;;;;;;4892332;29;20060;-75
2023/10/14 18:46:18;;;;;;;7.00;1.90;;;11.70;94.10;;;;;;4877724;29;20330;-79
2023/10/14 18:48:44;;;;;;;4.47;2.10;;;11.60;94.40;;;;;;4877479;29;20076;-77
2023/10/14 18:51:17;;;;;;;7.55;2.40;;;11.60;94.50;;;;;;4893677;29;20040;-78
2023/10/14 18:53:43;;;;;;;7.30;2.83;;;11.50;94.70;;;;;;4886385;29;20052;-79
2023/10/14 18:56:17;;;;;;;5.10;1.95;;;11.50;94.90;;;;;;4890330;29;20234;-77
2023/10/14 18:58:54;;;;;;;7.80;2.60;;;11.40;94.70;;;;;;4889911;29;20314;-77
2023/10/14 19:01:21;;;;;;;5.10;1.88;;;11.30;94.80;;;;;;4892052;29;20048;-76
2023/10/14 19:03:47;;;;;;;4.35;2.20;;;11.30;94.50;;;;;;4889874;29;20059;-76
2023/10/14 19:06:13;;;;;;;7.28;2.25;;;11.30;95.00;;;;;;4891300;29;20084;-76
2023/10/14 19:08:39;;;;;;;7.90;2.75;;;11.30;94.80;;;;;;4875550;29;20216;-76
2023/10/14 19:11:07;;;;;;;8.02;2.50;;;11.20;95.10;;;;;;4877311;29;20028;-76
2023/10/14 19:13:35;;;;;;;6.80;2.40;;;11.20;95.10;;;;;;4909837;29;20342;-76
2023/10/14 19:16:02;;;;;;;;;;;11.20;94.80;;;;;;4894255;29;20040;-76
2023/10/14 19:18:27;;;;;;;6.45;1.85;;;11.20;94.90;;;;;;4877492;29;19947;-77
2023/10/14 19:20:55;;;;;;;5.15;1.77;;;11.20;94.60;;;;;;4877922;29;20028;-78
2023/10/14 19:23:28;;;;;;;4.30;1.73;;;11.10;94.80;;;;;;4910065;29;20029;-76
2023/10/14 19:25:55;;;;;;;5.80;1.88;;;11.10;94.80;;;;;;4905673;29;20033;-77
2023/10/14 19:28:26;;;;;;;5.10;1.80;;;11.10;94.90;;;;;;4892972;29;20045;-77
2023/10/14 19:30:56;;;;;;;6.60;2.15;;;11.10;94.70;;;;;;4892645;29;20033;-76
2023/10/14 19:33:23;;;;;;;5.50;1.92;;;11.10;94.50;;;;;;4892494;29;20206;-78
2023/10/14 19:35:58;;;;;;;6.50;2.05;;;11.20;94.30;;;;;;4892731;29;20341;-80
2023/10/14 19:38:24;;;;;;;7.10;2.05;;;11.20;94.10;;;;;;4907363;29;20041;-77
2023/10/14 19:41:04;;;;;;;6.25;1.83;;;11.20;93.90;;;;;;4876740;29;20035;-77
2023/10/14 19:43:32;;;;;;;7.95;2.45;;;11.20;93.80;;;;;;4903766;29;20069;-76
2023/10/14 19:46:00;;;;;;;6.88;1.80;;;11.30;93.80;;;;;;4889206;29;20055;-78
2023/10/14 19:48:27;;;;;;;7.60;2.43;;;11.40;93.70;;;;;;4889592;29;20037;-75
2023/10/14 19:50:53;;;;;;;5.75;2.08;;;11.30;93.80;;;;;;4876922;29;20075;-78
2023/10/14 19:53:22;;;;;;;6.03;2.00;;;11.20;93.90;;;;;;4893108;29;20036;-78
2023/10/14 19:55:48;;;;;;;7.35;2.72;;;11.20;94.00;;;;;;4892997;29;20378;-78
2023/10/14 19:58:17;;;;;;;3.88;1.45;;;11.30;94.00;;;;;;4909017;29;20033;-76
2023/10/14 20:00:45;;;;;;;6.95;2.30;;;11.30;93.80;;;;;;4876669;29;20244;-77
2023/10/14 20:03:12;;;;;;;6.50;2.00;;;11.20;93.90;;;;;;4892513;29;20144;-78
2023/10/14 20:05:45;;;;;;;6.10;1.80;;;11.20;94.00;;;;;;4908283;29;20286;-77
2023/10/14 20:08:16;;;;;;;5.88;1.95;;;11.20;94.10;;;;;;4909322;29;20040;-77
2023/10/14 20:10:43;;;;;;;9.27;1.75;;;11.10;94.30;;;;;;4909099;29;20056;-78
2023/10/14 20:13:14;;;;;;;6.43;1.70;;;11.00;94.40;;;;;;4908775;29;20059;-77
2023/10/14 20:15:40;;;;;;;6.43;1.65;;;11.00;94.50;;;;;;4909022;29;20020;-77
2023/10/14 20:18:13;;;;;;;7.15;1.50;;;10.90;94.60;;;;;;4892592;29;20096;-79
2023/10/14 20:20:40;;;;;;;7.65;1.50;;;11.00;94.40;;;;;;4876429;29;20039;-78
2023/10/14 20:23:08;;;;;;;4.68;1.65;;;10.90;94.60;;;;;;4899925;29;20093;-78